Time;durP1;ratioP1;P1;durP2;ratioP2;P2;SDS_P1;SDS_P2;PMS_P1;PMS_P2;Temp;Humidity;BMP_temperature;BMP_pressure;BME280_temperature;BME280_humidity;BME280_pressure;Samples;Min_cycle;Max_cycle;Signal;HPM_P1;HPM_P2
2024/01/21 00:01:58;;;;;;;0.20;0.20;;;;;;;2.04;57.04;102836.41;4886120;29;20396;-89
2024/01/21 00:04:24;;;;;;;0.80;0.80;;;;;;;2.00;56.62;102847.03;4895824;29;20394;-89
2024/01/21 00:06:53;;;;;;;0.40;0.40;;;;;;;1.92;57.21;102850.81;4894657;29;20410;-91
2024/01/21 00:09:21;;;;;;;1.10;0.50;;;;;;;1.89;57.27;102853.56;4892122;29;20422;-91
2024/01/21 00:11:47;;;;;;;0.20;0.20;;;;;;;1.80;57.16;102853.94;4896365;29;20393;-90
2024/01/21 00:14:12;;;;;;;0.30;0.30;;;;;;;1.63;57.24;102843.28;4894579;29;20526;-89
2024/01/21 00:16:38;;;;;;;0.30;0.30;;;;;;;1.58;57.65;102851.28;4892382;29;20434;-90
2024/01/21 00:19:03;;;;;;;4.30;0.50;;;;;;;1.61;57.66;102860.78;4895942;29;20398;-89
2024/01/21 00:21:29;;;;;;;0.40;0.40;;;;;;;1.57;57.69;102856.56;4894973;29;20473;-90
2024/01/21 00:23:55;;;;;;;0.53;0.53;;;;;;;1.51;57.55;102855.91;4894005;29;20409;-88
2024/01/21 00:26:20;;;;;;;0.93;0.73;;;;;;;1.53;57.44;102856.69;4893759;29;20534;-89
2024/01/21 00:28:47;;;;;;;0.40;0.40;;;;;;;1.48;57.51;102853.41;4888915;29;20905;-90
2024/01/21 00:31:13;;;;;;;0.80;0.60;;;;;;;1.46;57.73;102863.06;4894045;29;20505;-89
2024/01/21 00:33:39;;;;;;;0.28;0.22;;;;;;;1.51;57.62;102855.91;4892573;29;20402;-89
2024/01/21 00:36:07;;;;;;;0.22;0.22;;;;;;;1.63;57.22;102851.97;4892973;29;20402;-90
2024/01/21 00:38:33;;;;;;;0.70;0.40;;;;;;;1.70;56.92;102863.03;4893575;29;20398;-89
2024/01/21 00:40:59;;;;;;;0.20;0.20;;;;;;;1.60;57.13;102854.69;4893205;29;20433;-89
2024/01/21 00:43:24;;;;;;;0.93;0.65;;;;;;;1.50;57.20;102851.59;4894547;29;20486;-90
2024/01/21 00:45:51;;;;;;;0.30;0.30;;;;;;;1.61;57.36;102866.00;4894408;29;20413;-89
2024/01/21 00:48:17;;;;;;;0.30;0.30;;;;;;;1.66;57.18;102861.47;4893581;29;20465;-90
2024/01/21 00:50:42;;;;;;;0.35;0.35;;;;;;;1.66;56.59;102857.09;4893191;29;20546;-89
2024/01/21 00:53:09;;;;;;;0.60;0.60;;;;;;;1.70;56.71;102858.66;4895570;29;20421;-89
2024/01/21 00:55:34;;;;;;;0.50;0.30;;;;;;;1.78;56.21;102858.34;4909778;29;20481;-89
2024/01/21 00:58:00;;;;;;;0.13;0.13;;;;;;;1.84;56.20;102868.59;4894898;29;20401;-89
2024/01/21 01:00:27;;;;;;;0.20;0.20;;;;;;;1.78;56.55;102866.19;4895116;29;20397;-89
2024/01/21 01:02:53;;;;;;;0.20;0.20;;;;;;;1.67;56.54;102856.16;4896398;29;20400;-89
2024/01/21 01:05:19;;;;;;;0.10;0.10;;;;;;;1.70;56.44;102860.44;4894645;29;20410;-88
2024/01/21 01:07:47;;;;;;;0.10;0.10;;;;;;;1.74;56.54;102861.16;4894185;29;20453;-89
2024/01/21 01:10:12;;;;;;;0.20;0.20;;;;;;;1.69;56.27;102858.72;4899411;29;20444;-89
2024/01/21 01:12:40;;;;;;;0.30;0.30;;;;;;;1.77;56.45;102855.81;4908318;29;20416;-86
2024/01/21 01:15:09;;;;;;;0.10;0.10;;;;;;;1.72;55.98;102851.59;4919395;29;20418;-88
2024/01/21 01:17:36;;;;;;;0.10;0.10;;;;;;;1.63;56.39;102861.56;4906858;29;20409;-88
2024/01/21 01:20:02;;;;;;;0.67;0.67;;;;;;;1.67;56.56;102853.53;4895657;29;20705;-87
2024/01/21 01:22:27;;;;;;;0.20;0.20;;;;;;;1.79;56.08;102861.84;4896462;29;20972;-89
2024/01/21 01:24:53;;;;;;;0.47;0.47;;;;;;;1.82;56.13;102851.25;4896626;29;20473;-88
2024/01/21 01:27:19;;;;;;;0.20;0.20;;;;;;;1.81;56.06;102860.00;4911937;29;20409;-88
2024/01/21 01:29:44;;;;;;;0.22;0.22;;;;;;;1.62;56.36;102838.94;4901132;29;20421;-88
2024/01/21 01:32:10;;;;;;;0.20;0.20;;;;;;;1.62;56.11;102847.66;4907048;29;20406;-87
2024/01/21 01:34:35;;;;;;;0.30;0.30;;;;;;;1.72;56.24;102853.38;4916893;29;20426;-88
2024/01/21 01:37:01;;;;;;;0.20;0.20;;;;;;;1.66;55.83;102849.25;4903258;29;20397;-90
2024/01/21 01:39:26;;;;;;;0.20;0.20;;;;;;;1.66;56.01;102846.63;4893297;29;20401;-89
2024/01/21 01:41:52;;;;;;;0.20;0.20;;;;;;;1.72;55.75;102845.53;4892947;29;20530;-89
2024/01/21 01:44:18;;;;;;;0.20;0.20;;;;;;;1.76;55.84;102843.66;4894251;29;20418;-89
2024/01/21 01:46:43;;;;;;;0.10;0.10;;;;;;;1.80;55.42;102851.31;4893085;29;20473;-90
2024/01/21 01:49:09;;;;;;;0.15;0.15;;;;;;;1.81;55.56;102847.78;4893136;29;20418;-89
2024/01/21 01:51:37;;;;;;;0.40;0.40;;;;;;;1.78;55.46;102845.28;4892661;29;20405;-88
2024/01/21 01:54:04;;;;;;;0.10;0.10;;;;;;;1.82;55.30;102846.00;4892644;29;20774;-89
2024/01/21 01:56:29;;;;;;;0.20;0.20;;;;;;;1.81;55.32;102849.56;4892072;29;20428;-88
2024/01/21 01:58:58;;;;;;;0.20;0.20;;;;;;;1.74;55.56;102850.72;4893120;29;20394;-89
2024/01/21 02:01:25;;;;;;;0.10;0.10;;;;;;;1.74;55.38;102850.72;4894981;29;20402;-89
2024/01/21 02:03:51;;;;;;;0.60;0.40;;;;;;;1.76;55.66;102854.94;4895428;29;20751;-88
2024/01/21 02:06:19;;;;;;;0.20;0.20;;;;;;;1.71;55.22;102855.16;4893658;29;20405;-89
2024/01/21 02:08:44;;;;;;;0.10;0.10;;;;;;;1.72;55.32;102859.44;4894811;29;20390;-88
2024/01/21 02:11:10;;;;;;;0.40;0.40;;;;;;;1.71;55.23;102854.28;4893933;29;20405;-88
2024/01/21 02:13:36;;;;;;;0.38;0.38;;;;;;;1.66;55.25;102854.47;4893971;29;20398;-89
2024/01/21 02:16:02;;;;;;;0.40;0.40;;;;;;;1.68;55.22;102857.88;4894355;29;20466;-90
2024/01/21 02:18:28;;;;;;;0.28;0.28;;;;;;;1.66;55.13;102861.47;4906510;29;20398;-89
2024/01/21 02:20:53;;;;;;;1.00;0.75;;;;;;;1.63;55.11;102851.97;4912197;29;20405;-89
2024/01/21 02:23:19;;;;;;;0.30;0.30;;;;;;;1.60;55.10;102853.84;4911205;29;20441;-89
2024/01/21 02:25:44;;;;;;;0.25;0.25;;;;;;;1.58;55.07;102858.28;4912513;29;20406;-89
2024/01/21 02:28:10;;;;;;;6.10;1.30;;;;;;;1.62;55.06;102863.34;4905966;29;20398;-88
2024/01/21 02:30:40;;;;;;;0.25;0.25;;;;;;;1.60;55.18;102857.28;4898136;29;20414;-89
2024/01/21 02:33:07;;;;;;;0.30;0.30;;;;;;;1.56;55.23;102854.88;4895459;29;20402;-90
2024/01/21 02:35:32;;;;;;;0.20;0.20;;;;;;;1.52;55.02;102851.53;4893066;29;20442;-89
2024/01/21 02:37:58;;;;;;;1.20;0.80;;;;;;;1.51;55.06;102855.91;4892614;29;20422;-89
2024/01/21 02:40:24;;;;;;;0.23;0.23;;;;;;;1.50;55.04;102855.97;4892489;29;20884;-89
2024/01/21 02:42:50;;;;;;;0.30;0.30;;;;;;;1.49;55.07;102854.25;4893177;29;20445;-90
2024/01/21 02:45:18;;;;;;;0.40;0.40;;;;;;;1.46;54.94;102855.22;4894780;29;20410;-89
2024/01/21 02:47:44;;;;;;;0.80;0.80;;;;;;;1.42;54.92;102853.63;4893046;29;20481;-88
2024/01/21 02:50:10;;;;;;;0.50;0.50;;;;;;;1.38;54.85;102852.03;4893422;29;20501;-89
2024/01/21 02:52:36;;;;;;;0.30;0.30;;;;;;;1.34;55.01;102858.28;4896340;29;20469;-87
2024/01/21 02:55:03;;;;;;;0.50;0.50;;;;;;;1.30;55.03;102857.56;4897731;29;20406;-89
2024/01/21 02:57:28;;;;;;;0.30;0.30;;;;;;;1.15;55.32;102850.28;4897025;29;20418;-89
2024/01/21 02:59:54;;;;;;;0.30;0.30;;;;;;;1.10;55.51;102849.63;4896649;29;20412;-90
2024/01/21 03:02:20;;;;;;;0.28;0.28;;;;;;;1.08;55.62;102859.25;4908671;29;20410;-87
2024/01/21 03:04:45;;;;;;;0.20;0.20;;;;;;;1.12;55.20;102858.25;4919929;29;20398;-89
2024/01/21 03:07:11;;;;;;;0.50;0.50;;;;;;;1.19;55.59;102864.94;4897244;29;20546;-90
2024/01/21 03:09:37;;;;;;;0.10;0.10;;;;;;;1.11;55.40;102856.53;4898059;29;20421;-90
2024/01/21 03:12:03;;;;;;;0.50;0.40;;;;;;;1.08;55.52;102852.28;4902769;29;20463;-90
2024/01/21 03:14:28;;;;;;;0.20;0.20;;;;;;;1.17;55.15;102866.78;4912346;29;20406;-88
2024/01/21 03:16:57;;;;;;;0.20;0.20;;;;;;;1.18;55.29;102865.00;4920843;29;20540;-87
2024/01/21 03:19:25;;;;;;;0.73;0.68;;;;;;;1.07;55.14;102857.56;4899610;29;20394;-89
2024/01/21 03:21:50;;;;;;;0.17;0.17;;;;;;;1.09;55.15;102867.03;4899296;29;20465;-89
2024/01/21 03:24:16;;;;;;;0.20;0.20;;;;;;;1.11;55.04;102865.19;4899378;29;20410;-89
2024/01/21 03:26:42;;;;;;;0.40;0.30;;;;;;;1.07;55.05;102874.06;4899444;29;20417;-89
2024/01/21 03:29:08;;;;;;;0.30;0.30;;;;;;;0.98;55.13;102877.00;4899781;29;20421;-89
2024/01/21 03:31:37;;;;;;;0.70;0.70;;;;;;;0.89;55.15;102859.91;4905762;29;20544;-88
2024/01/21 03:34:05;;;;;;;0.20;0.20;;;;;;;0.97;55.01;102869.22;4914905;29;20410;-88
2024/01/21 03:36:31;;;;;;;0.30;0.30;;;;;;;1.01;55.34;102878.66;4918413;29;20445;-87
2024/01/21 03:38:56;;;;;;;0.20;0.20;;;;;;;0.98;54.83;102868.34;4915334;29;20390;-88
2024/01/21 03:41:23;;;;;;;0.20;0.20;;;;;;;0.90;54.93;102872.06;4919243;29;20402;-88
2024/01/21 03:43:49;;;;;;;0.55;0.35;;;;;;;0.86;54.75;102867.00;4918970;29;20515;-90
2024/01/21 03:46:14;;;;;;;0.10;0.10;;;;;;;0.82;55.17;102868.00;4898387;29;20426;-90
2024/01/21 03:48:40;;;;;;;0.23;0.23;;;;;;;0.80;55.13;102875.88;4911210;29;20441;-90
2024/01/21 03:51:06;;;;;;;0.20;0.20;;;;;;;0.76;55.02;102877.75;4897015;29;20394;-90
2024/01/21 03:53:31;;;;;;;1.00;0.70;;;;;;;0.70;55.20;102869.28;4895972;29;20448;-90
2024/01/21 03:55:57;;;;;;;0.30;0.30;;;;;;;0.76;55.20;102874.31;4895608;29;20410;-89
2024/01/21 03:58:22;;;;;;;0.20;0.20;;;;;;;0.73;54.72;102867.41;4895902;29;20402;-90
2024/01/21 04:00:48;;;;;;;0.70;0.70;;;;;;;0.76;54.76;102869.09;4896358;29;20394;-89
2024/01/21 04:03:14;;;;;;;0.40;0.40;;;;;;;0.78;54.67;102861.19;4894635;29;20470;-89
2024/01/21 04:05:39;;;;;;;0.37;0.37;;;;;;;0.80;54.87;102875.88;4895958;29;20517;-89
2024/01/21 04:08:08;;;;;;;0.20;0.20;;;;;;;0.75;54.68;102862.13;4895789;29;20504;-89
2024/01/21 04:10:34;;;;;;;0.10;0.10;;;;;;;0.72;54.58;102873.56;4895454;29;20587;-88
2024/01/21 04:13:00;;;;;;;0.10;0.10;;;;;;;0.62;54.74;102869.53;4896356;29;20497;-89
2024/01/21 04:15:25;;;;;;;0.60;0.60;;;;;;;0.44;54.92;102880.59;4895659;29;20402;-90
2024/01/21 04:17:52;;;;;;;0.60;0.60;;;;;;;0.33;55.00;102883.56;4896749;29;20535;-89
2024/01/21 04:20:18;;;;;;;0.20;0.20;;;;;;;0.20;55.34;102875.28;4894679;29;20501;-90
2024/01/21 04:22:43;;;;;;;4.60;2.90;;;;;;;0.08;55.65;102879.13;4909834;29;20540;-90
2024/01/21 04:25:09;;;;;;;0.63;0.63;;;;;;;-0.04;56.12;102880.38;4894444;29;20447;-91
2024/01/21 04:27:35;;;;;;;0.32;0.32;;;;;;;-0.09;55.97;102887.47;4894553;29;20554;-88
2024/01/21 04:30:00;;;;;;;1.88;1.58;;;;;;;0.13;55.86;102895.47;4894514;29;20509;-89
2024/01/21 04:32:29;;;;;;;2.20;0.80;;;;;;;0.08;55.39;102896.53;4896417;29;20390;-90
2024/01/21 04:34:55;;;;;;;0.30;0.30;;;;;;;-0.07;55.63;102900.47;4895737;29;20888;-90
2024/01/21 04:37:20;;;;;;;1.80;1.70;;;;;;;-0.16;56.07;102890.31;4895870;29;20426;-89
2024/01/21 04:39:46;;;;;;;0.63;0.63;;;;;;;-0.08;55.84;102901.38;4894939;29;20925;-90
2024/01/21 04:42:12;;;;;;;0.30;0.30;;;;;;;-0.04;55.51;102898.63;4895486;29;20502;-93
2024/01/21 04:44:37;;;;;;;0.50;0.50;;;;;;;-0.09;55.65;102884.88;4895753;29;20394;-91
2024/01/21 04:47:03;;;;;;;0.15;0.15;;;;;;;0.02;55.43;102886.28;4895562;29;20417;-90
2024/01/21 04:49:32;;;;;;;0.10;0.10;;;;;;;-0.06;55.51;102879.53;4895189;29;20414;-90
2024/01/21 04:51:58;;;;;;;0.50;0.50;;;;;;;0.01;55.16;102889.81;4896113;29;20402;-89
2024/01/21 04:54:23;;;;;;;0.20;0.20;;;;;;;0.05;55.28;102897.47;4894978;29;20405;-89
2024/01/21 04:56:49;;;;;;;0.17;0.17;;;;;;;0.04;55.23;102892.28;4894019;29;20949;-89
2024/01/21 04:59:14;;;;;;;0.40;0.40;;;;;;;0.00;55.07;102899.38;4894115;29;20402;-88
2024/01/21 05:01:40;;;;;;;0.30;0.30;;;;;;;0.04;55.43;102892.28;4894544;29;20841;-88
2024/01/21 05:04:06;;;;;;;0.10;0.10;;;;;;;0.13;54.89;102903.31;4896439;29;20478;-88
2024/01/21 05:06:35;;;;;;;0.30;0.30;;;;;;;0.11;54.92;102901.63;4896443;29;20417;-89
2024/01/21 05:09:00;;;;;;;0.70;0.70;;;;;;;0.09;54.82;102903.44;4895513;29;20406;-89
2024/01/21 05:11:29;;;;;;;0.50;0.50;;;;;;;0.12;55.12;102917.22;4897448;29;20434;-90
2024/01/21 05:13:56;;;;;;;0.47;0.47;;;;;;;0.11;55.08;102912.94;4908273;29;20477;-88
2024/01/21 05:16:21;;;;;;;0.60;0.50;;;;;;;0.10;54.93;102908.59;4915865;29;20454;-89
2024/01/21 05:18:47;;;;;;;0.35;0.35;;;;;;;0.10;54.80;102910.38;4913152;29;20414;-89
2024/01/21 05:21:24;;;;;;;0.95;0.95;;;;;;;0.08;54.90;102918.25;4902514;29;20393;-89
2024/01/21 05:23:51;;;;;;;0.45;0.45;;;;;;;0.13;55.02;102916.34;4896415;29;20417;-91
2024/01/21 05:26:17;;;;;;;1.95;0.75;;;;;;;0.25;54.51;102914.25;4895649;29;20405;-89
2024/01/21 05:28:43;;;;;;;1.50;1.30;;;;;;;0.27;54.45;102910.72;4894376;29;20402;-88
2024/01/21 05:31:09;;;;;;;0.40;0.40;;;;;;;0.32;54.55;102907.94;4898361;29;20398;-88
2024/01/21 05:33:35;;;;;;;0.40;0.40;;;;;;;0.39;54.43;102914.66;4905933;29;20451;-89
2024/01/21 05:36:00;;;;;;;0.30;0.30;;;;;;;0.46;54.21;102921.38;4913177;29;20421;-89
2024/01/21 05:38:26;;;;;;;0.40;0.40;;;;;;;0.42;54.21;102916.34;4909834;29;20898;-87
2024/01/21 05:40:52;;;;;;;0.10;0.10;;;;;;;0.35;54.34;102920.88;4898358;29;21282;-90
2024/01/21 05:43:18;;;;;;;0.38;0.38;;;;;;;0.36;54.23;102919.97;4895595;29;20409;-89
2024/01/21 05:45:44;;;;;;;0.40;0.40;;;;;;;0.37;54.13;102919.09;4895329;29;20406;-89
2024/01/21 05:48:10;;;;;;;0.50;0.50;;;;;;;0.37;54.39;102921.69;4894097;29;20414;-88
2024/01/21 05:50:35;;;;;;;0.52;0.52;;;;;;;0.43;54.23;102925.84;4909128;29;20422;-89
2024/01/21 05:53:05;;;;;;;0.50;0.50;;;;;;;0.43;53.91;102931.91;4893386;29;20426;-88
2024/01/21 05:55:31;;;;;;;0.63;0.63;;;;;;;0.41;54.04;102927.66;4894886;29;20446;-91
2024/01/21 05:57:57;;;;;;;0.65;0.65;;;;;;;0.36;54.21;102931.28;4895373;29;20406;-90
2024/01/21 06:00:25;;;;;;;2.03;0.90;;;;;;;0.26;54.21;102929.00;4894944;29;20969;-90
2024/01/21 06:02:52;;;;;;;0.60;0.60;;;;;;;0.19;54.17;102942.22;4895387;29;20858;-90
2024/01/21 06:05:27;;;;;;;0.70;0.70;;;;;;;0.25;54.42;102945.56;4895087;29;20402;-90
2024/01/21 06:07:52;;;;;;;0.60;0.60;;;;;;;0.24;54.13;102954.28;4894687;29;20836;-90
2024/01/21 06:10:18;;;;;;;0.40;0.40;;;;;;;0.23;54.43;102956.03;4894431;29;20421;-90
2024/01/21 06:12:44;;;;;;;0.30;0.30;;;;;;;0.26;54.52;102950.72;4894686;29;20933;-89
2024/01/21 06:15:11;;;;;;;0.80;0.80;;;;;;;0.32;54.06;102958.34;4893596;29;20402;-89
2024/01/21 06:17:36;;;;;;;0.30;0.30;;;;;;;0.37;53.74;102951.22;4894107;29;20747;-90
2024/01/21 06:20:02;;;;;;;0.80;0.80;;;;;;;0.23;53.91;102966.47;4892812;29;21379;-88
2024/01/21 06:22:28;;;;;;;1.00;1.00;;;;;;;0.10;54.41;102970.34;4892630;29;20469;-89
2024/01/21 06:24:54;;;;;;;0.60;0.60;;;;;;;0.07;54.69;102967.81;4892044;29;20406;-89
2024/01/21 06:27:20;;;;;;;0.57;0.57;;;;;;;-0.01;54.87;102968.91;4895514;29;20441;-88
2024/01/21 06:29:45;;;;;;;0.70;0.70;;;;;;;-0.06;54.97;102965.59;4897337;29;20516;-89
2024/01/21 06:32:14;;;;;;;0.70;0.70;;;;;;;-0.07;55.01;102970.88;4896340;29;20466;-89
2024/01/21 06:34:39;;;;;;;1.33;1.23;;;;;;;-0.03;55.11;102972.47;4895740;29;20893;-91
2024/01/21 06:37:07;;;;;;;0.30;0.30;;;;;;;0.08;54.82;102983.44;4896707;29;20849;-90
2024/01/21 06:39:36;;;;;;;2.30;1.92;;;;;;;0.05;55.17;102974.84;4895685;29;20398;-89
2024/01/21 06:42:02;;;;;;;0.60;0.60;;;;;;;-0.09;54.99;102978.72;4896490;29;20442;-90
2024/01/21 06:44:28;;;;;;;1.70;1.60;;;;;;;-0.35;55.55;102979.47;4896555;29;20434;-89
2024/01/21 06:46:53;;;;;;;0.30;0.30;;;;;;;-0.24;55.77;102980.00;4895616;29;20409;-90
2024/01/21 06:49:19;;;;;;;0.93;0.70;;;;;;;-0.16;55.15;102984.16;4895938;29;20470;-89
2024/01/21 06:51:53;;;;;;;4.93;2.10;;;;;;;-0.15;55.32;102988.47;4895494;29;20524;-90
2024/01/21 06:54:19;;;;;;;0.65;0.65;;;;;;;-0.25;55.29;102982.69;4896914;29;20517;-90
2024/01/21 06:56:45;;;;;;;0.50;0.50;;;;;;;-0.33;55.28;102982.03;4912541;29;20422;-90
2024/01/21 06:59:11;;;;;;;0.50;0.50;;;;;;;-0.24;55.88;102992.19;4897407;29;20442;-89
2024/01/21 07:01:36;;;;;;;2.10;2.00;;;;;;;-0.25;55.41;102993.09;4897687;29;20402;-90
2024/01/21 07:04:02;;;;;;;2.15;1.95;;;;;;;-0.36;55.71;102995.13;4897897;29;20545;-90
2024/01/21 07:06:28;;;;;;;1.38;0.85;;;;;;;-0.40;55.98;103003.06;4897552;29;20455;-91
2024/01/21 07:08:56;;;;;;;0.60;0.40;;;;;;;-0.30;55.42;103002.81;4898001;29;20827;-91
2024/01/21 07:11:22;;;;;;;1.55;1.38;;;;;;;-0.30;55.34;103003.66;4897618;29;20406;-91
2024/01/21 07:13:48;;;;;;;1.60;1.50;;;;;;;-0.25;55.29;103008.75;4902687;29;20562;-90
2024/01/21 07:16:14;;;;;;;0.83;0.50;;;;;;;-0.29;55.52;103005.38;4911524;29;20405;-87
2024/01/21 07:18:39;;;;;;;0.43;0.37;;;;;;;-0.24;55.75;103011.28;4919759;29;20429;-89
2024/01/21 07:21:05;;;;;;;0.90;0.90;;;;;;;-0.27;55.68;103008.78;4898441;29;20410;-89
2024/01/21 07:23:31;;;;;;;0.80;0.80;;;;;;;-0.09;55.71;103007.41;4898147;29;20406;-89
2024/01/21 07:25:57;;;;;;;1.60;1.10;;;;;;;0.03;55.36;103002.72;4898030;29;20438;-89
2024/01/21 07:28:23;;;;;;;0.73;0.73;;;;;;;0.03;55.50;102993.13;4899166;29;20405;-90
2024/01/21 07:30:48;;;;;;;0.60;0.50;;;;;;;0.23;55.39;103002.97;4898110;29;20421;-90
2024/01/21 07:33:16;;;;;;;0.30;0.30;;;;;;;0.37;55.29;102997.34;4906588;29;20402;-90
2024/01/21 07:35:42;;;;;;;0.77;0.70;;;;;;;0.55;54.99;103008.97;4914265;29;20469;-90
2024/01/21 07:38:09;;;;;;;1.67;1.43;;;;;;;0.59;55.00;103007.97;4918662;29;20418;-89
2024/01/21 07:40:36;;;;;;;0.30;0.30;;;;;;;0.58;54.89;103014.09;4900729;29;20454;-89
2024/01/21 07:43:02;;;;;;;0.73;0.60;;;;;;;0.61;55.11;103027.03;4914843;29;20815;-91
2024/01/21 07:45:28;;;;;;;0.80;0.80;;;;;;;0.70;55.38;103023.28;4901370;29;20406;-91
2024/01/21 07:47:54;;;;;;;1.10;0.90;;;;;;;0.75;55.05;103011.78;4900139;29;20405;-89
2024/01/21 07:50:19;;;;;;;0.80;0.60;;;;;;;0.66;55.40;103022.53;4898385;29;20429;-89
2024/01/21 07:52:45;;;;;;;1.40;1.00;;;;;;;0.65;55.88;103017.34;4898501;29;20497;-90
2024/01/21 07:55:11;;;;;;;0.70;0.67;;;;;;;0.75;55.48;103013.56;4898325;29;20493;-90
2024/01/21 07:57:36;;;;;;;0.20;0.20;;;;;;;0.93;55.49;103026.00;4898188;29;20394;-90
2024/01/21 08:00:05;;;;;;;0.63;0.50;;;;;;;0.81;55.88;103012.50;4898652;29;20755;-91
2024/01/21 08:02:31;;;;;;;0.90;0.45;;;;;;;0.94;55.29;103027.72;4900701;29;20394;-90
2024/01/21 08:04:57;;;;;;;0.38;0.32;;;;;;;0.99;55.15;103024.09;4904310;29;20424;-90
2024/01/21 08:07:22;;;;;;;0.60;0.47;;;;;;;1.18;54.90;103017.38;4899070;29;20398;-89
2024/01/21 08:09:48;;;;;;;0.33;0.30;;;;;;;1.19;54.67;103012.97;4899096;29;20893;-90
2024/01/21 08:12:14;;;;;;;1.10;1.00;;;;;;;1.34;54.57;103004.63;4898046;29;20405;-90
2024/01/21 08:14:40;;;;;;;1.20;1.20;;;;;;;1.60;54.42;103021.16;4898754;29;20402;-91
2024/01/21 08:17:06;;;;;;;1.02;0.93;;;;;;;1.68;54.41;103019.97;4899075;29;20447;-90
2024/01/21 08:19:36;;;;;;;0.30;0.30;;;;;;;1.55;53.94;103013.50;4897499;29;20406;-90
2024/01/21 08:22:03;;;;;;;0.80;0.80;;;;;;;1.67;54.47;103023.47;4896604;29;20409;-88
2024/01/21 08:24:29;;;;;;;1.13;1.02;;;;;;;1.79;54.11;103026.59;4881069;29;20398;-90
2024/01/21 08:26:55;;;;;;;0.20;0.20;;;;;;;1.89;54.00;103030.53;4897705;29;20406;-90
2024/01/21 08:29:20;;;;;;;0.20;0.20;;;;;;;2.01;53.83;103026.63;4898690;29;20750;-88
2024/01/21 08:31:47;;;;;;;0.30;0.30;;;;;;;1.83;52.78;103036.84;4898269;29;21301;-89
2024/01/21 08:34:12;;;;;;;0.38;0.38;;;;;;;1.76;53.30;103039.75;4899689;29;20461;-90
2024/01/21 08:36:38;;;;;;;0.30;0.30;;;;;;;1.98;53.53;103039.81;4899434;29;20631;-88
2024/01/21 08:39:09;;;;;;;0.80;0.70;;;;;;;2.06;53.44;103030.78;4882956;29;20533;-88
2024/01/21 08:41:35;;;;;;;0.40;0.35;;;;;;;2.47;53.08;103037.97;4901007;29;20823;-87
2024/01/21 08:44:04;;;;;;;0.50;0.50;;;;;;;2.55;52.97;103033.28;4899613;29;20479;-88
2024/01/21 08:46:30;;;;;;;0.40;0.40;;;;;;;2.35;52.46;103033.22;4900112;29;20401;-87
2024/01/21 08:48:56;;;;;;;0.40;0.40;;;;;;;2.44;52.26;103038.09;4898827;29;20408;-88
2024/01/21 08:51:22;;;;;;;0.70;0.70;;;;;;;2.76;53.00;103031.59;4904660;29;20921;-89
2024/01/21 08:53:55;;;;;;;0.85;0.85;;;;;;;2.98;52.53;103035.94;4904956;29;20414;-89
2024/01/21 08:56:25;;;;;;;0.60;0.57;;;;;;;2.92;52.47;103041.41;4901287;29;20509;-89
2024/01/21 08:58:51;;;;;;;0.80;0.80;;;;;;;3.09;52.61;103040.75;4898284;29;20397;-87
2024/01/21 09:01:17;;;;;;;0.60;0.60;;;;;;;3.17;52.55;103026.41;4898365;29;20418;-89
2024/01/21 09:03:43;;;;;;;0.37;0.37;;;;;;;3.40;52.59;103033.31;4897590;29;20398;-89
2024/01/21 09:06:10;;;;;;;0.30;0.30;;;;;;;3.46;51.99;103034.81;4899467;29;20394;-90
2024/01/21 09:08:36;;;;;;;0.45;0.45;;;;;;;3.62;52.77;103043.69;4883780;29;20437;-89
2024/01/21 09:11:02;;;;;;;0.40;0.40;;;;;;;3.62;52.55;103037.63;4898584;29;20422;-88
2024/01/21 09:13:27;;;;;;;2.15;2.00;;;;;;;3.69;52.51;103032.94;4898821;29;20402;-89
2024/01/21 09:15:53;;;;;;;2.33;1.38;;;;;;;3.72;52.53;103036.28;4882316;29;20406;-89
2024/01/21 09:18:19;;;;;;;1.08;0.82;;;;;;;3.66;51.76;103028.69;4906716;29;20409;-89
2024/01/21 09:20:44;;;;;;;0.60;0.50;;;;;;;3.78;51.63;103032.50;4914620;29;20397;-87
2024/01/21 09:23:10;;;;;;;1.05;0.95;;;;;;;3.88;51.59;103031.19;4905053;29;20441;-87
2024/01/21 09:25:36;;;;;;;0.52;0.50;;;;;;;3.91;51.61;103017.94;4892793;29;20658;-86
2024/01/21 09:28:05;;;;;;;1.35;0.80;;;;;;;4.06;51.64;103016.38;4893556;29;20906;-88
2024/01/21 09:30:31;;;;;;;2.08;1.15;;;;;;;4.12;51.77;103023.97;4894311;29;20427;-87
2024/01/21 09:32:57;;;;;;;2.30;1.47;;;;;;;4.12;51.02;103025.75;4894747;29;20490;-88
2024/01/21 09:35:29;;;;;;;0.57;0.50;;;;;;;3.95;50.07;103008.16;4896640;29;20485;-87
2024/01/21 09:37:57;;;;;;;0.30;0.30;;;;;;;4.01;50.42;103016.59;4902024;29;20462;-87
2024/01/21 09:40:23;;;;;;;0.32;0.28;;;;;;;4.09;50.34;103011.00;4907361;29;20395;-88
2024/01/21 09:42:50;;;;;;;0.50;0.40;;;;;;;3.91;50.21;103017.09;4902128;29;20486;-89
2024/01/21 09:45:21;;;;;;;0.50;0.50;;;;;;;4.02;50.12;103013.06;4897093;29;20403;-89
2024/01/21 09:47:49;;;;;;;0.30;0.30;;;;;;;4.34;50.71;103007.22;4898393;29;20402;-89
2024/01/21 09:50:19;;;;;;;0.33;0.33;;;;;;;4.20;50.03;103007.88;4899312;29;20504;-89
2024/01/21 09:52:48;;;;;;;0.60;0.40;;;;;;;4.25;49.71;103019.03;4899467;29;20402;-89
2024/01/21 09:55:14;;;;;;;1.13;0.50;;;;;;;4.27;49.68;103008.41;4897052;29;20395;-88
2024/01/21 09:57:53;;;;;;;;;;;;;;;;;;;;;
2024/01/21 10:00:20;;;;;;;2.27;1.87;;;;;;;4.47;49.59;102992.59;4897669;29;20929;-87
2024/01/21 10:02:50;;;;;;;0.90;0.70;;;;;;;4.38;49.31;102983.38;4900436;29;21047;-88
2024/01/21 10:05:16;;;;;;;0.88;0.80;;;;;;;4.35;48.98;102991.38;4901098;29;20890;-88
2024/01/21 10:07:43;;;;;;;0.70;0.60;;;;;;;4.35;49.34;102995.78;4902375;29;20405;-88
2024/01/21 10:10:12;;;;;;;0.40;0.40;;;;;;;4.13;48.28;102999.44;4907900;29;20481;-87
2024/01/21 10:12:38;;;;;;;0.45;0.45;;;;;;;4.17;48.86;102981.75;4923829;29;20414;-88
2024/01/21 10:15:04;;;;;;;0.43;0.43;;;;;;;4.43;48.96;102985.78;4923735;29;20511;-89
2024/01/21 10:17:29;;;;;;;0.95;0.90;;;;;;;4.66;48.76;102981.19;4923128;29;20442;-88
2024/01/21 10:19:57;;;;;;;0.60;0.60;;;;;;;4.62;48.14;102983.09;4920969;29;20397;-87
2024/01/21 10:22:25;;;;;;;1.13;0.90;;;;;;;4.67;48.55;102980.25;4908546;29;20401;-88
2024/01/21 10:24:54;;;;;;;1.52;0.90;;;;;;;4.73;48.45;102979.94;4904009;29;20409;-88
2024/01/21 10:27:23;;;;;;;0.60;0.50;;;;;;;4.66;47.68;102975.94;4903204;29;20445;-88
2024/01/21 10:29:49;;;;;;;0.60;0.30;;;;;;;4.66;47.16;102979.41;4901491;29;20428;-89
2024/01/21 10:32:17;;;;;;;0.20;0.20;;;;;;;4.44;47.44;102979.59;4901479;29;20405;-86
2024/01/21 10:34:50;;;;;;;0.50;0.50;;;;;;;4.31;46.70;102984.59;4903001;29;20405;-88
2024/01/21 10:37:17;;;;;;;1.60;0.90;;;;;;;4.37;47.06;102972.94;4902929;29;20894;-87
2024/01/21 10:39:47;;;;;;;0.68;0.68;;;;;;;4.61;46.80;102973.53;4902481;29;20394;-87
2024/01/21 10:42:19;;;;;;;0.57;0.57;;;;;;;4.43;46.29;102969.16;4902570;29;20411;-89
2024/01/21 10:44:48;;;;;;;0.50;0.30;;;;;;;4.71;47.76;102961.63;4903208;29;20389;-89
2024/01/21 10:47:15;;;;;;;0.93;0.65;;;;;;;4.58;46.39;102966.66;4902707;29;20403;-88
2024/01/21 10:49:42;;;;;;;0.90;0.65;;;;;;;4.45;46.18;102965.56;4896200;29;20418;-88
2024/01/21 10:52:09;;;;;;;0.57;0.47;;;;;;;4.82;47.43;102953.22;4899903;29;20402;-88
2024/01/21 10:54:54;;;;;;;1.20;1.08;;;;;;;4.81;46.60;102956.78;4899788;29;20409;-87
2024/01/21 10:57:22;;;;;;;1.67;1.35;;;;;;;4.88;46.99;102952.06;4899570;29;20458;-88
2024/01/21 10:59:48;;;;;;;1.35;0.60;;;;;;;4.84;46.83;102940.84;4899364;29;20486;-88
2024/01/21 11:02:14;;;;;;;1.50;0.70;;;;;;;4.77;46.16;102942.94;4898947;29;20462;-87
2024/01/21 11:04:42;;;;;;;0.60;0.35;;;;;;;4.89;46.41;102933.56;4900065;29;20382;-88
2024/01/21 11:07:12;;;;;;;0.77;0.40;;;;;;;5.09;46.09;102945.69;4898841;29;20413;-88
2024/01/21 11:09:41;;;;;;;0.63;0.40;;;;;;;4.94;46.46;102954.38;4896367;29;20929;-88
2024/01/21 11:12:08;;;;;;;0.70;0.70;;;;;;;5.10;46.09;102947.41;4898411;29;20438;-87
2024/01/21 11:14:35;;;;;;;0.90;0.70;;;;;;;5.32;46.65;102955.03;4900143;29;20961;-88
2024/01/21 11:17:06;;;;;;;0.30;0.20;;;;;;;5.21;46.17;102948.66;4899039;29;20498;-87
2024/01/21 11:19:49;;;;;;;0.45;0.45;;;;;;;4.82;44.03;102953.22;4900719;29;20398;-87
2024/01/21 11:22:16;;;;;;;1.17;0.80;;;;;;;4.49;44.25;102953.13;4900873;29;20793;-87
2024/01/21 11:24:42;;;;;;;1.10;0.53;;;;;;;4.78;45.23;102938.53;4903305;29;20438;-87
2024/01/21 11:27:25;;;;;;;1.20;1.10;;;;;;;5.10;45.12;102944.78;4910165;29;20406;-85
2024/01/21 11:29:55;;;;;;;1.08;0.98;;;;;;;5.27;45.09;102935.16;4913013;29;20418;-87
2024/01/21 11:32:29;;;;;;;0.90;0.60;;;;;;;5.38;45.16;102940.69;4913583;29;20513;-88